createdAt,value
2019-06-07T00:01:26.876Z,12.00
2019-06-07T00:03:58.059Z,16.77
2019-06-07T00:06:29.347Z,13.17
2019-06-07T00:09:00.467Z,12.00
2019-06-07T00:11:33.353Z,10.77
2019-06-07T00:14:05.241Z,7.57
2019-06-07T00:16:36.505Z,8.93
2019-06-07T00:19:09.536Z,8.83
2019-06-07T00:22:13.423Z,19.00
2019-06-07T00:24:16.164Z,9.43
2019-06-07T00:26:57.837Z,15.95
2019-06-07T00:29:21.688Z,12.37
2019-06-07T00:31:52.482Z,22.53
2019-06-07T00:34:25.084Z,12.80
2019-06-07T00:36:56.489Z,14.20
2019-06-07T00:39:30.491Z,17.70
2019-06-07T00:42:02.282Z,16.93
2019-06-07T00:44:33.316Z,13.10
2019-06-07T00:47:05.569Z,17.47
2019-06-07T00:49:41.580Z,19.20
2019-06-07T00:52:10.903Z,15.60
2019-06-07T00:54:42.589Z,10.83
2019-06-07T00:57:16.664Z,20.00
2019-06-07T00:59:46.913Z,16.37
2019-06-07T01:02:21.335Z,12.63
2019-06-07T01:04:51.289Z,12.80
2019-06-07T01:07:24.309Z,11.97
2019-06-07T01:09:55.257Z,17.37
2019-06-07T01:12:27.221Z,16.17
2019-06-07T01:14:58.420Z,16.63
2019-06-07T01:17:43.787Z,17.00
2019-06-07T01:20:03.470Z,12.40
2019-06-07T01:22:35.092Z,11.30
2019-06-07T01:25:06.366Z,17.70
2019-06-07T01:27:37.570Z,27.30
2019-06-07T01:30:10.816Z,14.90
2019-06-07T01:32:41.824Z,11.10
2019-06-07T01:35:13.195Z,15.23
2019-06-07T01:37:44.072Z,16.43
2019-06-07T01:40:17.285Z,18.43
2019-06-07T01:42:49.270Z,27.77
2019-06-07T01:45:23.468Z,14.30
2019-06-07T01:47:54.391Z,24.63
2019-06-07T01:50:27.032Z,16.17
2019-06-07T01:52:57.929Z,13.30
2019-06-07T01:55:32.218Z,23.33
2019-06-07T01:58:03.801Z,17.33
2019-06-07T02:00:34.846Z,15.43
2019-06-07T02:03:05.797Z,18.07
2019-06-07T02:05:36.678Z,15.17
2019-06-07T02:08:07.828Z,20.73
2019-06-07T02:10:38.790Z,19.10
2019-06-07T02:13:09.816Z,20.43
2019-06-07T02:15:40.817Z,21.33
2019-06-07T02:18:12.071Z,18.27
2019-06-07T02:20:43.150Z,16.63
2019-06-07T02:23:14.164Z,19.47
2019-06-07T02:25:50.270Z,15.13
2019-06-07T02:28:42.903Z,15.03
2019-06-07T02:30:59.985Z,20.17
2019-06-07T02:33:27.947Z,25.77
2019-06-07T02:35:56.678Z,17.97
2019-06-07T02:38:35.917Z,19.60
2019-06-07T02:41:00.983Z,13.13
2019-06-07T02:43:36.686Z,16.03
2019-06-07T02:46:26.554Z,19.97
2019-06-07T02:48:46.091Z,11.70
2019-06-07T02:51:17.432Z,24.87
2019-06-07T02:53:48.708Z,20.30
2019-06-07T02:56:42.110Z,17.37
2019-06-07T02:58:52.886Z,12.20
2019-06-07T03:01:31.371Z,15.53
2019-06-07T03:04:02.295Z,16.13
2019-06-07T03:06:40.414Z,14.47
2019-06-07T03:09:10.341Z,18.20
2019-06-07T03:11:43.315Z,14.07
2019-06-07T03:14:15.657Z,14.17
2019-06-07T03:16:57.084Z,14.70
2019-06-07T03:19:37.288Z,15.67
2019-06-07T03:22:06.825Z,14.13
2019-06-07T03:24:41.764Z,18.60
2019-06-07T03:27:32.702Z,19.67
2019-06-07T03:29:45.479Z,23.40
2019-06-07T03:32:16.624Z,17.83
2019-06-07T03:34:47.945Z,21.67
2019-06-07T03:37:19.034Z,27.33
2019-06-07T03:39:50.276Z,16.80
2019-06-07T03:42:21.552Z,20.30
2019-06-07T03:44:53.063Z,15.40
2019-06-07T03:47:24.559Z,18.87
2019-06-07T03:49:56.318Z,21.20
2019-06-07T03:52:27.499Z,18.10
2019-06-07T03:54:58.941Z,16.80
2019-06-07T03:57:36.736Z,21.40
2019-06-07T04:00:03.252Z,19.77
2019-06-07T04:02:38.598Z,22.37
2019-06-07T04:05:07.929Z,18.90
2019-06-07T04:07:43.413Z,24.93
2019-06-07T04:10:12.217Z,17.27
2019-06-07T04:12:44.257Z,24.10
2019-06-07T04:15:15.901Z,21.67
2019-06-07T04:18:01.422Z,19.20
2019-06-07T04:20:20.026Z,28.73
2019-06-07T04:22:51.664Z,14.57
2019-06-07T04:25:23.163Z,16.83
2019-06-07T04:27:54.342Z,18.90
2019-06-07T04:30:45.604Z,19.13
2019-06-07T04:33:16.857Z,17.73
2019-06-07T04:35:48.141Z,19.73
2019-06-07T04:38:19.308Z,15.80
2019-06-07T04:40:52.245Z,30.03
2019-06-07T04:43:23.280Z,25.17
2019-06-07T04:45:56.245Z,18.47
2019-06-07T04:48:32.392Z,21.30
2019-06-07T04:51:05.504Z,16.60
2019-06-07T04:53:40.121Z,23.93
2019-06-07T04:56:09.545Z,27.37
2019-06-07T04:58:41.306Z,29.23
2019-06-07T05:01:26.913Z,38.10
2019-06-07T05:03:45.525Z,21.27
2019-06-07T05:06:16.494Z,18.57
2019-06-07T05:08:47.608Z,23.37
2019-06-07T05:11:18.744Z,25.40
2019-06-07T05:13:49.646Z,33.77
2019-06-07T05:16:20.604Z,21.50
2019-06-07T05:18:51.616Z,23.53
2019-06-07T05:21:22.540Z,14.30
2019-06-07T05:24:06.763Z,26.97
2019-06-07T05:26:26.289Z,25.63
2019-06-07T05:28:57.146Z,35.77
2019-06-07T05:31:28.881Z,26.50
2019-06-07T05:34:00.029Z,23.33
2019-06-07T05:36:31.516Z,30.93
2019-06-07T05:39:03.109Z,24.03
2019-06-07T05:41:36.461Z,19.33
2019-06-07T05:44:12.525Z,18.17
2019-06-07T05:46:43.412Z,23.27
2019-06-07T05:49:12.531Z,24.07
2019-06-07T05:51:45.038Z,29.80
2019-06-07T05:54:16.282Z,18.90
2019-06-07T05:56:47.898Z,24.77
2019-06-07T05:59:19.157Z,30.00
2019-06-07T06:01:59.793Z,25.13
2019-06-07T06:04:26.427Z,23.33
2019-06-07T06:06:57.738Z,26.87
2019-06-07T06:09:29.888Z,24.47
2019-06-07T06:12:02.540Z,19.80
2019-06-07T06:14:39.584Z,21.70
2019-06-07T06:17:08.366Z,25.20
2019-06-07T06:19:40.691Z,20.83
2019-06-07T06:22:12.108Z,30.17
2019-06-07T06:25:17.542Z,26.27
2019-06-07T06:28:02.213Z,31.50
2019-06-07T06:29:50.295Z,35.87
2019-06-07T06:34:55.916Z,38.97
2019-06-07T06:37:27.270Z,22.73
2019-06-07T06:39:58.564Z,25.53
2019-06-07T06:42:29.535Z,30.00
2019-06-07T06:45:00.515Z,24.93
2019-06-07T06:47:31.951Z,25.50
2019-06-07T06:50:03.498Z,25.33
2019-06-07T06:52:34.724Z,24.73
2019-06-07T06:55:07.510Z,33.03
2019-06-07T06:57:41.071Z,20.93
2019-06-07T07:00:13.392Z,23.97
2019-06-07T07:03:32.927Z,27.73
2019-06-07T07:05:17.735Z,29.07
2019-06-07T07:07:52.637Z,27.43
2019-06-07T07:10:37.866Z,27.80
2019-06-07T07:13:09.100Z,25.83
2019-06-07T07:15:42.811Z,21.63
2019-06-07T07:18:14.440Z,36.33
2019-06-07T07:20:47.641Z,25.90
2019-06-07T07:23:18.470Z,22.50
2019-06-07T07:25:55.488Z,21.50
2019-06-07T07:28:23.154Z,20.10
2019-06-07T07:30:56.940Z,23.60
2019-06-07T07:34:20.277Z,20.30
2019-06-07T07:36:18.937Z,23.87
2019-06-07T07:38:35.507Z,18.47
2019-06-07T07:41:14.459Z,23.80
2019-06-07T07:43:39.848Z,22.40
2019-06-07T07:46:28.404Z,13.97
2019-06-07T07:48:44.288Z,18.77
2019-06-07T07:51:15.654Z,19.90
2019-06-07T07:53:54.375Z,17.73
2019-06-07T07:56:20.339Z,21.53
2019-06-07T07:58:56.187Z,30.30
2019-06-07T08:01:23.949Z,14.77
2019-06-07T08:03:56.617Z,19.10
2019-06-07T08:06:27.917Z,12.77
2019-06-07T08:08:59.654Z,18.90
2019-06-07T08:11:30.775Z,18.97
2019-06-07T08:14:01.829Z,19.63
2019-06-07T08:16:33.028Z,28.10
2019-06-07T08:19:04.674Z,27.07
2019-06-07T08:21:35.929Z,13.67
2019-06-07T08:24:08.168Z,15.47
2019-06-07T08:26:39.327Z,19.90
2019-06-07T08:29:10.321Z,26.60
2019-06-07T08:31:41.313Z,25.50
2019-06-07T08:34:12.623Z,21.63
2019-06-07T08:36:43.638Z,21.67
2019-06-07T08:39:14.545Z,17.83
2019-06-07T08:41:59.359Z,9.83
2019-06-07T08:44:23.643Z,22.70
2019-06-07T08:46:55.537Z,23.23
2019-06-07T08:49:23.912Z,26.73
2019-06-07T08:52:03.027Z,19.30
2019-06-07T08:54:27.632Z,18.43
2019-06-07T08:57:17.966Z,12.60
2019-06-07T08:59:31.276Z,15.90
2019-06-07T09:02:14.551Z,18.70
2019-06-07T09:04:34.733Z,30.43
2019-06-07T09:07:18.793Z,17.23
2019-06-07T09:09:38.489Z,23.63
2019-06-07T09:12:11.309Z,13.30
2019-06-07T09:14:58.801Z,15.23
2019-06-07T09:17:14.986Z,13.47
2019-06-07T09:19:46.191Z,14.93
2019-06-07T09:22:17.252Z,18.53
2019-06-07T09:24:48.721Z,11.40
2019-06-07T09:27:19.755Z,17.83
2019-06-07T09:29:51.257Z,21.53
2019-06-07T09:32:22.267Z,21.80
2019-06-07T09:34:53.738Z,11.80
2019-06-07T09:38:03.697Z,12.97
2019-06-07T09:40:05.613Z,16.63
2019-06-07T09:42:30.361Z,16.07
2019-06-07T09:45:06.554Z,12.37
2019-06-07T09:47:35.902Z,6.67
2019-06-07T09:50:11.441Z,16.40
2019-06-07T09:52:57.330Z,17.10
2019-06-07T09:55:23.650Z,15.50
2019-06-07T09:57:45.138Z,13.60
2019-06-07T10:02:50.465Z,16.40
2019-06-07T10:05:21.755Z,20.47
2019-06-07T10:08:07.523Z,19.03
2019-06-07T10:12:59.538Z,15.33
2019-06-07T10:15:30.728Z,12.80
2019-06-07T10:18:02.777Z,11.77
2019-06-07T10:20:34.895Z,14.73
2019-06-07T10:23:07.759Z,14.73
2019-06-07T10:25:39.689Z,17.53
2019-06-07T10:28:10.665Z,16.53
2019-06-07T10:30:42.685Z,15.13
2019-06-07T10:33:14.164Z,13.93
2019-06-07T10:35:45.221Z,19.00
2019-06-07T10:38:16.488Z,14.77
2019-06-07T10:40:47.408Z,18.40
2019-06-07T10:43:18.493Z,16.93
2019-06-07T10:45:49.431Z,17.03
2019-06-07T10:48:20.418Z,12.70
2019-06-07T10:50:51.453Z,22.17
2019-06-07T10:53:22.299Z,16.07
2019-06-07T10:55:53.437Z,21.50
2019-06-07T10:58:24.599Z,21.90
2019-06-07T11:00:55.584Z,28.43
2019-06-07T11:03:26.642Z,13.47
2019-06-07T11:05:58.281Z,13.60
2019-06-07T11:08:29.356Z,18.07
2019-06-07T11:11:00.407Z,15.63
2019-06-07T11:13:31.362Z,18.73
2019-06-07T11:16:02.387Z,21.13
2019-06-07T11:18:33.712Z,19.20
2019-06-07T11:21:06.083Z,12.90
2019-06-07T11:23:37.051Z,12.87
2019-06-07T11:26:08.378Z,14.60
2019-06-07T11:28:39.760Z,10.13
2019-06-07T11:31:11.185Z,14.27
2019-06-07T11:33:42.566Z,16.50
2019-06-07T11:36:15.178Z,12.40
2019-06-07T11:38:46.354Z,7.90
2019-06-07T11:41:17.914Z,11.50
2019-06-07T11:43:49.566Z,23.47
2019-06-07T11:46:20.453Z,11.07
2019-06-07T11:48:51.539Z,16.83
2019-06-07T11:51:24.138Z,12.90
2019-06-07T11:53:55.202Z,11.67
2019-06-07T11:56:26.183Z,19.73
2019-06-07T11:58:57.242Z,15.10
2019-06-07T12:01:28.420Z,16.40
2019-06-07T12:03:59.331Z,10.43
2019-06-07T12:06:30.597Z,27.97
2019-06-07T12:09:08.427Z,20.70
2019-06-07T12:11:40.227Z,13.13
2019-06-07T12:14:12.806Z,15.00
2019-06-07T12:16:43.854Z,19.97
2019-06-07T12:19:15.516Z,11.30
2019-06-07T12:21:46.653Z,23.87
2019-06-07T12:24:19.388Z,12.80
2019-06-07T12:26:50.763Z,10.77
2019-06-07T12:29:21.792Z,17.83
2019-06-07T12:31:52.749Z,13.83
2019-06-07T12:34:23.840Z,17.03
2019-06-07T12:36:55.256Z,20.80
2019-06-07T12:39:26.578Z,19.37
2019-06-07T12:41:57.687Z,11.63
2019-06-07T12:44:28.671Z,20.43
2019-06-07T12:46:59.626Z,7.50
2019-06-07T12:49:30.610Z,13.13
2019-06-07T12:52:01.664Z,10.20
2019-06-07T12:54:36.473Z,26.47
2019-06-07T12:57:07.541Z,13.90
2019-06-07T12:59:38.547Z,13.37
2019-06-07T13:02:09.809Z,15.13
2019-06-07T13:04:42.588Z,11.50
2019-06-07T13:07:15.628Z,20.97
2019-06-07T13:09:46.975Z,20.57
2019-06-07T13:12:18.119Z,15.50
2019-06-07T13:14:49.127Z,14.47
2019-06-07T13:17:20.472Z,14.03
2019-06-07T13:19:51.560Z,22.27
2019-06-07T13:22:22.693Z,19.73
2019-06-07T13:24:53.530Z,19.13
2019-06-07T13:27:24.861Z,15.17
2019-06-07T13:29:55.912Z,17.83
2019-06-07T13:32:28.145Z,19.70
2019-06-07T13:34:59.325Z,16.60
2019-06-07T13:37:30.319Z,20.47
2019-06-07T13:40:01.342Z,15.80
2019-06-07T13:42:32.217Z,18.63
2019-06-07T13:45:03.545Z,12.20
2019-06-07T13:47:34.833Z,14.73
2019-06-07T13:50:06.502Z,11.43
2019-06-07T13:52:37.742Z,20.00
2019-06-07T13:55:09.337Z,16.53
2019-06-07T13:57:40.455Z,9.07
2019-06-07T14:00:11.888Z,19.60
2019-06-07T14:02:43.061Z,16.50
2019-06-07T14:05:14.237Z,16.47
2019-06-07T14:07:45.978Z,7.80
2019-06-07T14:10:17.723Z,13.60
2019-06-07T14:12:48.885Z,14.20
2019-06-07T14:15:20.458Z,21.13
2019-06-07T14:17:51.385Z,18.83
2019-06-07T14:20:26.608Z,15.17
2019-06-07T14:22:56.611Z,12.50
2019-06-07T14:25:27.616Z,8.37
2019-06-07T14:27:58.625Z,11.20
2019-06-07T14:30:30.626Z,7.10
2019-06-07T14:33:02.497Z,6.47
2019-06-07T14:35:33.813Z,3.10
2019-06-07T14:38:05.072Z,4.63
2019-06-07T14:40:36.562Z,3.90
2019-06-07T14:43:07.929Z,4.00
2019-06-07T14:45:39.197Z,5.97
2019-06-07T14:48:10.633Z,3.30
2019-06-07T14:50:41.878Z,2.83
2019-06-07T14:53:13.295Z,3.43
2019-06-07T14:55:44.984Z,7.57
2019-06-07T14:58:16.413Z,4.33
2019-06-07T15:00:47.388Z,2.60
2019-06-07T15:03:18.547Z,2.40
2019-06-07T15:05:49.968Z,2.43
2019-06-07T15:08:21.645Z,4.30
2019-06-07T15:10:53.897Z,2.23
2019-06-07T15:13:27.487Z,5.20
2019-06-07T15:15:58.891Z,3.90
2019-06-07T15:18:31.731Z,4.03
2019-06-07T15:21:03.298Z,3.70
2019-06-07T15:23:36.925Z,2.90
2019-06-07T15:26:08.258Z,7.00
2019-06-07T15:28:40.145Z,5.27
2019-06-07T15:31:11.472Z,8.53
2019-06-07T15:33:43.288Z,2.80
2019-06-07T15:36:14.270Z,7.53
2019-06-07T15:38:45.925Z,6.72
2019-06-07T15:41:17.024Z,3.33
2019-06-07T15:43:47.866Z,5.60
2019-06-07T15:46:19.327Z,3.33
2019-06-07T15:48:50.671Z,4.97
2019-06-07T15:51:21.677Z,2.27
2019-06-07T15:53:52.621Z,3.97
2019-06-07T15:56:23.889Z,3.87
2019-06-07T15:58:55.013Z,6.50
2019-06-07T16:01:25.891Z,3.17
2019-06-07T16:03:57.537Z,2.97
2019-06-07T16:06:28.738Z,2.63
2019-06-07T16:09:00.012Z,1.97
2019-06-07T16:11:33.045Z,3.10
2019-06-07T16:14:06.369Z,5.80
2019-06-07T16:16:38.927Z,6.93
2019-06-07T16:19:11.581Z,21.30
2019-06-07T16:21:43.663Z,5.40
2019-06-07T16:24:15.137Z,4.23
2019-06-07T16:26:47.379Z,8.80
2019-06-07T16:29:18.669Z,8.30
2019-06-07T16:31:49.580Z,16.93
2019-06-07T16:34:20.462Z,11.23
2019-06-07T16:36:51.914Z,13.40
2019-06-07T16:39:32.196Z,11.43
2019-06-07T16:42:03.517Z,8.50
2019-06-07T16:44:34.705Z,11.77
2019-06-07T16:47:06.210Z,18.03
2019-06-07T16:49:38.623Z,11.30
2019-06-07T16:52:09.759Z,19.93
2019-06-07T16:54:43.531Z,12.67
2019-06-07T16:57:14.982Z,26.37
2019-06-07T16:59:49.026Z,18.60
2019-06-07T17:02:19.608Z,16.70
2019-06-07T17:04:50.539Z,18.20
2019-06-07T17:07:21.765Z,13.60
2019-06-07T17:09:53.584Z,9.23
2019-06-07T17:12:25.031Z,5.10
2019-06-07T17:14:56.280Z,3.53
2019-06-07T17:17:27.721Z,2.13
2019-06-07T17:19:59.044Z,8.00
2019-06-07T17:22:30.095Z,8.13
2019-06-07T17:25:01.773Z,1.83
2019-06-07T17:27:33.169Z,3.77
2019-06-07T17:30:04.598Z,8.37
2019-06-07T17:32:48.630Z,5.47
2019-06-07T17:35:10.729Z,3.23
2019-06-07T17:37:43.542Z,2.50
2019-06-07T17:40:14.866Z,2.80
2019-06-07T17:42:46.867Z,5.47
2019-06-07T17:45:18.385Z,3.73
2019-06-07T17:47:49.900Z,5.97
2019-06-07T17:50:21.443Z,8.77
2019-06-07T17:52:53.250Z,10.37
2019-06-07T17:55:25.730Z,3.10
2019-06-07T17:57:56.962Z,8.60
2019-06-07T18:00:34.360Z,4.43
2019-06-07T18:03:05.668Z,3.17
2019-06-07T18:05:36.518Z,5.23
2019-06-07T18:08:08.151Z,11.00
2019-06-07T18:10:39.813Z,5.20
2019-06-07T18:13:15.019Z,5.30
2019-06-07T18:15:52.838Z,6.43
2019-06-07T18:18:20.798Z,7.60
2019-06-07T18:20:52.148Z,8.97
2019-06-07T18:23:24.636Z,2.40
2019-06-07T18:25:55.756Z,8.43
2019-06-07T18:28:27.248Z,4.20
2019-06-07T18:30:58.974Z,3.80
2019-06-07T18:33:30.285Z,2.93
2019-06-07T18:36:01.722Z,5.50
2019-06-07T18:38:33.430Z,5.30
2019-06-07T18:41:05.279Z,3.07
2019-06-07T18:43:36.968Z,8.40
2019-06-07T18:46:07.914Z,3.70
2019-06-07T18:48:39.050Z,12.70
2019-06-07T18:51:10.039Z,5.90
2019-06-07T18:53:43.703Z,2.57
2019-06-07T18:56:15.495Z,5.30
2019-06-07T18:58:47.166Z,5.57
2019-06-07T19:01:19.006Z,2.73
2019-06-07T19:03:52.001Z,3.80
2019-06-07T19:06:23.714Z,5.60
2019-06-07T19:08:56.967Z,13.07
2019-06-07T19:11:36.486Z,18.10
2019-06-07T19:14:08.368Z,15.20
2019-06-07T19:16:39.983Z,32.60
2019-06-07T19:19:11.561Z,26.57
2019-06-07T19:21:42.810Z,20.90
2019-06-07T19:24:14.482Z,15.10
2019-06-07T19:26:45.756Z,14.20
2019-06-07T19:29:17.081Z,25.17
2019-06-07T19:31:48.675Z,29.30
2019-06-07T19:34:20.220Z,21.83
2019-06-07T19:36:51.519Z,25.17
2019-06-07T19:39:23.730Z,18.07
2019-06-07T19:41:55.907Z,17.20
2019-06-07T19:44:27.434Z,18.83
2019-06-07T19:46:58.561Z,16.03
2019-06-07T19:49:29.478Z,17.10
2019-06-07T19:52:01.075Z,24.13
2019-06-07T19:54:31.926Z,23.43
2019-06-07T19:57:05.027Z,20.20
2019-06-07T19:59:36.017Z,18.60
2019-06-07T20:02:07.401Z,25.03
2019-06-07T20:04:38.504Z,19.90
2019-06-07T20:07:09.808Z,15.97
2019-06-07T20:09:40.569Z,21.77
2019-06-07T20:12:11.650Z,17.23
2019-06-07T20:14:42.738Z,17.70
2019-06-07T20:17:14.001Z,17.77
2019-06-07T20:19:45.322Z,14.63
2019-06-07T20:22:16.642Z,16.07
2019-06-07T20:24:47.947Z,26.20
2019-06-07T20:27:19.207Z,24.33
2019-06-07T20:29:50.015Z,26.93
2019-06-07T20:32:21.325Z,33.63
2019-06-07T20:34:52.537Z,20.30
2019-06-07T20:37:23.675Z,20.57
2019-06-07T20:39:54.943Z,22.67
2019-06-07T20:42:26.351Z,19.80
2019-06-07T20:44:57.607Z,16.87
2019-06-07T20:47:29.695Z,16.90
2019-06-07T20:50:02.214Z,18.20
2019-06-07T20:52:34.605Z,24.30
2019-06-07T20:55:06.958Z,26.40
2019-06-07T20:57:38.638Z,26.60
2019-06-07T21:00:17.333Z,23.67
2019-06-07T21:02:44.705Z,16.40
2019-06-07T21:05:15.766Z,15.53
2019-06-07T21:07:47.268Z,21.63
2019-06-07T21:10:19.338Z,15.53
2019-06-07T21:12:50.258Z,23.33
2019-06-07T21:15:25.809Z,16.67
2019-06-07T21:17:57.030Z,14.07
2019-06-07T21:20:28.097Z,15.53
2019-06-07T21:23:00.680Z,15.90
2019-06-07T21:25:31.898Z,16.50
2019-06-07T21:28:03.137Z,14.63
2019-06-07T21:30:34.660Z,21.77
2019-06-07T21:33:05.634Z,25.93
2019-06-07T21:35:36.702Z,19.10
2019-06-07T21:38:07.872Z,14.30
2019-06-07T21:40:39.446Z,19.87
2019-06-07T21:43:10.686Z,21.70
2019-06-07T21:45:41.958Z,18.30
2019-06-07T21:48:14.396Z,15.70
2019-06-07T21:50:45.892Z,11.90
2019-06-07T21:53:17.061Z,15.00
2019-06-07T21:55:48.321Z,14.60
2019-06-07T21:58:19.618Z,11.20
2019-06-07T22:01:14.671Z,13.27
2019-06-07T22:03:47.711Z,14.53
2019-06-07T22:06:19.080Z,13.50
2019-06-07T22:08:50.358Z,11.47
2019-06-07T22:11:21.264Z,14.30
2019-06-07T22:13:52.839Z,17.87
2019-06-07T22:16:29.216Z,15.20
2019-06-07T22:18:56.670Z,16.73
2019-06-07T22:21:27.824Z,21.50
2019-06-07T22:23:59.592Z,12.43
2019-06-07T22:26:30.670Z,11.73
2019-06-07T22:29:02.003Z,20.00
2019-06-07T22:31:33.223Z,16.70
2019-06-07T22:34:04.790Z,16.63
2019-06-07T22:36:36.029Z,16.70
2019-06-07T22:39:09.651Z,17.83
2019-06-07T22:41:41.026Z,10.40
2019-06-07T22:44:16.166Z,10.53
2019-06-07T22:46:47.609Z,8.30
2019-06-07T22:49:20.956Z,13.80
2019-06-07T22:51:51.742Z,6.83
2019-06-07T22:54:22.683Z,9.07
2019-06-07T22:57:04.605Z,7.30
2019-06-07T22:59:35.865Z,7.33
2019-06-07T23:02:06.717Z,11.63
2019-06-07T23:04:37.911Z,7.70
2019-06-07T23:07:08.987Z,7.70
2019-06-07T23:09:40.262Z,11.97
2019-06-07T23:12:11.338Z,8.13
2019-06-07T23:14:42.281Z,9.93
2019-06-07T23:17:13.857Z,12.10
2019-06-07T23:19:45.141Z,8.93
2019-06-07T23:22:16.133Z,11.27
2019-06-07T23:24:47.441Z,17.03
2019-06-07T23:27:18.496Z,19.90
2019-06-07T23:29:49.592Z,13.97
2019-06-07T23:32:21.605Z,9.53
2019-06-07T23:34:52.547Z,19.77
2019-06-07T23:37:23.910Z,8.20
2019-06-07T23:39:54.915Z,12.37
2019-06-07T23:42:26.119Z,10.70
2019-06-07T23:44:57.429Z,10.20
2019-06-07T23:47:30.101Z,11.97
2019-06-07T23:50:01.501Z,12.00
2019-06-07T23:52:32.441Z,8.73
2019-06-07T23:55:03.514Z,12.10
2019-06-07T23:57:34.321Z,14.77
